createdAt,value
2023-05-22T00:00:41.556Z,101755.50
2023-05-22T00:03:08.827Z,101754.69
2023-05-22T00:05:39.354Z,101760.41
2023-05-22T00:08:11.958Z,101755.75
2023-05-22T00:10:39.732Z,101756.88
2023-05-22T00:13:06.986Z,101755.75
2023-05-22T00:15:34.047Z,101749.28
2023-05-22T00:18:00.802Z,101755.34
2023-05-22T00:20:28.074Z,101754.66
2023-05-22T00:22:57.175Z,101754.66
2023-05-22T00:25:24.372Z,101751.28
2023-05-22T00:27:51.609Z,101756.25
2023-05-22T00:30:18.686Z,101754.09
2023-05-22T00:32:45.721Z,101745.66
2023-05-22T00:35:13.105Z,101747.63
2023-05-22T00:37:40.183Z,101741.53
2023-05-22T00:40:08.707Z,101747.91
2023-05-22T00:42:35.806Z,101739.88
2023-05-22T00:45:02.772Z,101740.03
2023-05-22T00:47:30.098Z,101742.91
2023-05-22T00:49:57.076Z,101740.22
2023-05-22T00:52:24.377Z,101732.81
2023-05-22T00:54:54.363Z,101738.94
2023-05-22T00:57:24.856Z,101737.75
2023-05-22T00:59:52.566Z,101737.94
2023-05-22T01:02:20.401Z,101737.00
2023-05-22T01:04:51.151Z,101729.56
2023-05-22T01:07:18.089Z,101734.44
2023-05-22T01:09:45.173Z,101735.78
2023-05-22T01:12:27.892Z,101735.97
2023-05-22T01:15:24.801Z,101730.63
2023-05-22T01:18:19.952Z,101731.28
2023-05-22T01:20:58.548Z,101723.44
2023-05-22T01:23:44.015Z,101724.66
2023-05-22T01:26:16.926Z,101716.34
2023-05-22T01:29:11.748Z,101714.22
2023-05-22T01:31:43.506Z,101714.06
2023-05-22T01:34:14.820Z,101714.63
2023-05-22T01:36:46.295Z,101723.69
2023-05-22T01:39:14.962Z,101720.56
2023-05-22T01:41:42.197Z,101720.72
2023-05-22T01:44:09.276Z,101722.75
2023-05-22T01:46:36.437Z,101722.47
2023-05-22T01:49:03.631Z,101715.69
2023-05-22T01:51:53.898Z,101718.03
2023-05-22T01:54:53.818Z,101714.88
2023-05-22T01:57:44.535Z,101717.41
2023-05-22T02:00:15.427Z,101709.81
2023-05-22T02:02:48.807Z,101714.41
2023-05-22T02:05:19.004Z,101712.28
2023-05-22T02:07:47.859Z,101717.22
2023-05-22T02:10:16.306Z,101718.06
2023-05-22T02:12:43.795Z,101717.94
2023-05-22T02:15:11.693Z,101699.47
2023-05-22T02:17:42.123Z,101713.94
2023-05-22T02:20:15.620Z,101705.88
2023-05-22T02:22:46.815Z,101697.78
2023-05-22T02:25:17.682Z,101702.75
2023-05-22T02:27:47.157Z,101706.91
2023-05-22T02:30:15.392Z,101702.31
2023-05-22T02:32:42.630Z,101681.81
2023-05-22T02:35:10.560Z,101702.31
2023-05-22T02:37:37.816Z,101695.13
2023-05-22T02:40:08.281Z,101696.47
2023-05-22T02:42:35.597Z,101683.16
2023-05-22T02:45:03.117Z,101685.28
2023-05-22T02:47:30.169Z,101685.13
2023-05-22T02:49:58.190Z,101686.41
2023-05-22T02:52:25.739Z,101686.41
2023-05-22T02:54:53.029Z,101680.97
2023-05-22T02:57:19.985Z,101677.84
2023-05-22T02:59:46.841Z,101683.16
2023-05-22T03:02:15.231Z,101671.94
2023-05-22T03:04:42.543Z,101671.59
2023-05-22T03:07:09.439Z,101681.00
2023-05-22T03:09:36.516Z,101661.03
2023-05-22T03:12:03.665Z,101676.31
2023-05-22T03:14:30.583Z,101666.63
2023-05-22T03:16:59.089Z,101667.09
2023-05-22T03:19:26.857Z,101671.25
2023-05-22T03:21:54.106Z,101667.94
2023-05-22T03:24:21.354Z,101664.94
2023-05-22T03:26:48.332Z,101671.38
2023-05-22T03:29:15.316Z,101659.34
2023-05-22T03:31:42.394Z,101667.56
2023-05-22T03:34:09.405Z,101661.94
2023-05-22T03:36:36.562Z,101658.16
2023-05-22T03:39:04.002Z,101650.69
2023-05-22T03:41:31.367Z,101633.03
2023-05-22T03:43:59.003Z,101651.22
2023-05-22T03:46:26.681Z,101654.19
2023-05-22T03:48:53.763Z,101652.03
2023-05-22T03:51:21.012Z,101657.09
2023-05-22T03:53:48.084Z,101662.22
2023-05-22T03:56:15.295Z,101661.16
2023-05-22T03:58:42.202Z,101656.88
2023-05-22T04:01:10.312Z,101659.69
2023-05-22T04:03:38.077Z,101649.69
2023-05-22T04:06:06.037Z,101659.91
2023-05-22T04:08:33.414Z,101652.50
2023-05-22T04:11:00.776Z,101648.28
2023-05-22T04:13:27.902Z,101649.56
2023-05-22T04:15:57.042Z,101645.81
2023-05-22T04:18:24.157Z,101645.53
2023-05-22T04:20:52.119Z,101647.31
2023-05-22T04:23:19.307Z,101642.06
2023-05-22T04:25:48.185Z,101644.22
2023-05-22T04:28:17.795Z,101646.41
2023-05-22T04:30:44.982Z,101646.06
2023-05-22T04:33:12.848Z,101647.94
2023-05-22T04:35:41.203Z,101650.75
2023-05-22T04:38:08.702Z,101648.84
2023-05-22T04:40:38.368Z,101641.22
2023-05-22T04:43:05.869Z,101639.19
2023-05-22T04:45:33.171Z,101635.75
2023-05-22T04:48:02.928Z,101645.13
2023-05-22T04:50:33.149Z,101647.25
2023-05-22T04:53:00.525Z,101645.25
2023-05-22T04:55:34.388Z,101642.06
2023-05-22T04:58:01.261Z,101645.94
2023-05-22T05:00:30.053Z,101642.59
2023-05-22T05:02:57.745Z,101643.34
2023-05-22T05:05:25.162Z,101640.28
2023-05-22T05:07:53.472Z,101636.66
2023-05-22T05:10:20.736Z,101636.88
2023-05-22T05:12:47.802Z,101632.13
2023-05-22T05:15:14.904Z,101627.59
2023-05-22T05:17:41.828Z,101635.00
2023-05-22T05:20:09.554Z,101634.63
2023-05-22T05:22:37.695Z,101629.53
2023-05-22T05:25:05.835Z,101630.09
2023-05-22T05:27:33.074Z,101618.88
2023-05-22T05:30:00.596Z,101616.94
2023-05-22T05:32:28.039Z,101616.72
2023-05-22T05:34:55.210Z,101624.34
2023-05-22T05:37:22.837Z,101624.78
2023-05-22T05:39:49.869Z,101622.94
2023-05-22T05:42:18.202Z,101623.81
2023-05-22T05:44:45.216Z,101620.75
2023-05-22T05:47:12.506Z,101631.81
2023-05-22T05:49:39.512Z,101633.13
2023-05-22T05:52:06.892Z,101630.41
2023-05-22T05:54:33.756Z,101624.25
2023-05-22T05:57:00.777Z,101627.44
2023-05-22T05:59:27.720Z,101622.59
2023-05-22T06:01:54.816Z,101624.25
2023-05-22T06:04:22.165Z,101624.56
2023-05-22T06:06:48.957Z,101627.84
2023-05-22T06:09:16.665Z,101625.16
2023-05-22T06:11:43.666Z,101625.19
2023-05-22T06:14:11.322Z,101626.09
2023-05-22T06:16:38.401Z,101627.47
2023-05-22T06:19:05.586Z,101628.97
2023-05-22T06:21:32.606Z,101618.53
2023-05-22T06:23:59.626Z,101628.75
2023-05-22T06:26:26.440Z,101628.19
2023-05-22T06:28:54.695Z,101626.91
2023-05-22T06:31:23.120Z,101621.81
2023-05-22T06:33:50.596Z,101619.88
2023-05-22T06:36:17.746Z,101625.50
2023-05-22T06:38:46.312Z,101627.25
2023-05-22T06:41:13.413Z,101619.03
2023-05-22T06:43:40.384Z,101629.69
2023-05-22T06:46:07.588Z,101621.06
2023-05-22T06:48:35.947Z,101631.91
2023-05-22T06:51:03.217Z,101627.19
2023-05-22T06:53:30.344Z,101632.25
2023-05-22T06:55:57.583Z,101623.47
2023-05-22T06:58:24.516Z,101623.41
2023-05-22T07:00:51.584Z,101621.94
2023-05-22T07:03:18.580Z,101624.03
2023-05-22T07:05:45.608Z,101619.16
2023-05-22T07:08:12.670Z,101616.72
2023-05-22T07:10:39.674Z,101616.69
2023-05-22T07:13:06.872Z,101623.69
2023-05-22T07:15:33.918Z,101618.41
2023-05-22T07:18:01.001Z,101590.75
2023-05-22T07:20:28.230Z,101611.50
2023-05-22T07:22:55.164Z,101608.19
2023-05-22T07:25:22.026Z,101605.69
2023-05-22T07:27:49.023Z,101596.38
2023-05-22T07:30:16.259Z,101598.81
2023-05-22T07:32:43.123Z,101605.63
2023-05-22T07:35:11.151Z,101588.66
2023-05-22T07:37:38.706Z,101594.41
2023-05-22T07:40:12.720Z,101599.75
2023-05-22T07:42:39.749Z,101589.63
2023-05-22T07:45:07.315Z,101594.94
2023-05-22T07:47:34.514Z,101592.38
2023-05-22T07:50:04.613Z,101590.59
2023-05-22T07:52:34.181Z,101594.44
2023-05-22T07:55:01.160Z,101586.78
2023-05-22T07:57:29.808Z,101590.25
2023-05-22T07:59:57.424Z,101582.34
2023-05-22T08:02:24.564Z,101585.72
2023-05-22T08:04:54.837Z,101590.84
2023-05-22T08:07:22.120Z,101590.88
2023-05-22T08:09:49.001Z,101585.16
2023-05-22T08:12:16.002Z,101571.72
2023-05-22T08:14:43.018Z,101578.44
2023-05-22T08:17:10.051Z,101561.44
2023-05-22T08:19:36.996Z,101566.91
2023-05-22T08:22:04.151Z,101559.19
2023-05-22T08:24:31.680Z,101560.31
2023-05-22T08:26:59.222Z,101556.09
2023-05-22T08:29:26.207Z,101559.50
2023-05-22T08:31:54.205Z,101552.44
2023-05-22T08:34:21.486Z,101550.50
2023-05-22T08:36:50.085Z,101559.09
2023-05-22T08:39:19.419Z,101561.00
2023-05-22T08:41:47.784Z,101561.31
2023-05-22T08:44:14.816Z,101563.66
2023-05-22T08:46:45.902Z,101558.28
2023-05-22T08:49:13.672Z,101541.31
2023-05-22T08:51:45.040Z,101557.78
2023-05-22T08:54:12.112Z,101551.50
2023-05-22T08:56:52.888Z,101537.81
2023-05-22T08:59:23.545Z,101544.78
2023-05-22T09:01:52.709Z,101544.34
2023-05-22T09:04:23.996Z,101538.13
2023-05-22T09:06:51.969Z,101538.06
2023-05-22T09:09:19.062Z,101513.28
2023-05-22T09:11:46.439Z,101516.22
2023-05-22T09:14:13.428Z,101529.84
2023-05-22T09:16:47.719Z,101524.22
2023-05-22T09:19:16.192Z,101525.75
2023-05-22T09:21:44.614Z,101524.88
2023-05-22T09:24:12.320Z,101509.25
2023-05-22T09:26:39.829Z,101519.66
2023-05-22T09:29:11.288Z,101503.72
2023-05-22T09:31:43.082Z,101511.06
2023-05-22T09:34:17.900Z,101504.34
2023-05-22T09:36:44.844Z,101499.94
2023-05-22T09:39:11.929Z,101503.63
2023-05-22T09:41:40.314Z,101507.41
2023-05-22T09:44:17.042Z,101490.88
2023-05-22T09:46:48.023Z,101490.69
2023-05-22T09:49:16.685Z,101493.63
2023-05-22T09:51:48.519Z,101487.69
2023-05-22T09:54:16.613Z,101500.09
2023-05-22T09:56:45.029Z,101491.38
2023-05-22T09:59:14.027Z,101492.50
2023-05-22T10:01:42.979Z,101491.38
2023-05-22T10:04:14.566Z,101483.94
2023-05-22T10:06:43.250Z,101473.06
2023-05-22T10:09:19.253Z,101481.84
2023-05-22T10:11:49.733Z,101484.06
2023-05-22T10:14:17.146Z,101482.16
2023-05-22T10:16:45.577Z,101454.25
2023-05-22T10:19:14.107Z,101472.66
2023-05-22T10:21:42.206Z,101473.75
2023-05-22T10:24:10.285Z,101479.78
2023-05-22T10:26:39.072Z,101469.78
2023-05-22T10:29:13.022Z,101461.63
2023-05-22T10:32:03.086Z,101455.66
2023-05-22T10:34:33.433Z,101466.84
2023-05-22T10:37:22.300Z,101461.69
2023-05-22T10:40:05.440Z,101451.91
2023-05-22T10:42:32.903Z,101435.47
2023-05-22T10:45:04.664Z,101404.88
2023-05-22T10:47:34.235Z,101432.97
2023-05-22T10:50:12.184Z,101439.97
2023-05-22T10:52:40.841Z,101440.31
2023-05-22T10:55:09.787Z,101441.69
2023-05-22T10:57:40.238Z,101462.75
2023-05-22T11:00:16.571Z,101441.31
2023-05-22T11:02:45.717Z,101432.09
2023-05-22T11:05:22.001Z,101437.41
2023-05-22T11:07:49.493Z,101431.41
2023-05-22T11:10:27.165Z,101430.44
2023-05-22T11:13:12.309Z,101431.72
2023-05-22T11:15:46.026Z,101432.84
2023-05-22T11:18:14.840Z,101425.19
2023-05-22T11:20:42.368Z,101428.16
2023-05-22T11:23:11.446Z,101418.41
2023-05-22T11:25:41.542Z,101413.06
2023-05-22T11:28:10.857Z,101417.22
2023-05-22T11:30:38.982Z,101411.50
2023-05-22T11:33:06.982Z,101403.22
2023-05-22T11:35:34.713Z,101396.94
2023-05-22T11:38:05.534Z,101402.91
2023-05-22T11:40:32.578Z,101409.41
2023-05-22T11:42:59.810Z,101396.66
2023-05-22T11:45:27.322Z,101412.44
2023-05-22T11:47:54.431Z,101394.50
2023-05-22T11:50:40.270Z,101394.56
2023-05-22T11:53:08.801Z,101404.09
2023-05-22T11:55:36.020Z,101385.13
2023-05-22T11:58:03.114Z,101386.72
2023-05-22T12:00:31.787Z,101395.19
2023-05-22T12:02:59.462Z,101375.69
2023-05-22T12:05:26.665Z,101368.72
2023-05-22T12:07:53.809Z,101375.38
2023-05-22T12:10:20.854Z,101354.38
2023-05-22T12:12:48.318Z,101359.94
2023-05-22T12:15:20.563Z,101355.09
2023-05-22T12:17:47.806Z,101365.38
2023-05-22T12:20:15.023Z,101355.78
2023-05-22T12:22:43.654Z,101357.94
2023-05-22T12:25:18.215Z,101352.72
2023-05-22T12:27:46.302Z,101357.31
2023-05-22T12:30:14.702Z,101358.69
2023-05-22T12:32:47.177Z,101355.16
2023-05-22T12:35:18.110Z,101358.75
2023-05-22T12:37:49.884Z,101356.97
2023-05-22T12:40:17.020Z,101357.53
2023-05-22T12:42:45.351Z,101355.66
2023-05-22T12:45:13.472Z,101353.69
2023-05-22T12:47:40.760Z,101330.59
2023-05-22T12:50:08.609Z,101350.00
2023-05-22T12:52:36.666Z,101356.59
2023-05-22T12:55:03.884Z,101339.84
2023-05-22T12:57:30.709Z,101341.16
2023-05-22T12:59:57.629Z,101342.38
2023-05-22T13:02:24.811Z,101335.69
2023-05-22T13:04:54.629Z,101338.03
2023-05-22T13:07:21.831Z,101334.44
2023-05-22T13:09:48.695Z,101333.25
2023-05-22T13:12:15.972Z,101319.31
2023-05-22T13:14:43.053Z,101327.34
2023-05-22T13:17:10.896Z,101326.03
2023-05-22T13:19:38.396Z,101319.09
2023-05-22T13:22:07.595Z,101307.16
2023-05-22T13:24:34.646Z,101305.63
2023-05-22T13:27:01.948Z,101314.41
2023-05-22T13:29:29.075Z,101309.03
2023-05-22T13:31:55.992Z,101296.38
2023-05-22T13:34:23.206Z,101299.66
2023-05-22T13:36:50.893Z,101304.72
2023-05-22T13:39:18.127Z,101302.06
2023-05-22T13:41:48.085Z,101298.41
2023-05-22T13:44:15.121Z,101287.19
2023-05-22T13:46:42.146Z,101287.91
2023-05-22T13:49:09.200Z,101280.19
2023-05-22T13:51:36.488Z,101281.41
2023-05-22T13:54:04.011Z,101270.47
2023-05-22T13:56:31.436Z,101270.09
2023-05-22T13:58:58.427Z,101252.53
2023-05-22T14:01:25.293Z,101253.38
2023-05-22T14:03:52.510Z,101247.06
2023-05-22T14:06:21.264Z,101230.69
2023-05-22T14:08:48.851Z,101251.34
2023-05-22T14:11:15.735Z,101247.03
2023-05-22T14:13:43.265Z,101250.53
2023-05-22T14:16:10.232Z,101247.03
2023-05-22T14:18:37.624Z,101235.69
2023-05-22T14:21:05.004Z,101233.38
2023-05-22T14:23:32.145Z,101223.91
2023-05-22T14:25:59.286Z,101237.16
2023-05-22T14:28:26.249Z,101232.75
2023-05-22T14:30:56.359Z,101221.91
2023-05-22T14:33:23.825Z,101222.78
2023-05-22T14:35:55.104Z,101216.16
2023-05-22T14:38:22.152Z,101215.59
2023-05-22T14:40:49.143Z,101202.13
2023-05-22T14:43:16.206Z,101208.22
2023-05-22T14:45:43.912Z,101211.03
2023-05-22T14:48:11.957Z,101212.00
2023-05-22T14:50:38.837Z,101217.06
2023-05-22T14:53:05.917Z,101212.84
2023-05-22T14:55:32.781Z,101207.88
2023-05-22T14:57:59.855Z,101214.94
2023-05-22T15:00:27.213Z,101213.41
2023-05-22T15:02:54.149Z,101222.19
2023-05-22T15:05:21.149Z,101239.09
2023-05-22T15:07:49.898Z,101246.78
2023-05-22T15:10:18.486Z,101306.69
2023-05-22T15:12:45.760Z,101326.41
2023-05-22T15:15:12.615Z,101324.28
2023-05-22T15:17:41.830Z,101318.88
2023-05-22T15:20:10.824Z,101327.44
2023-05-22T15:22:37.861Z,101329.78
2023-05-22T15:25:11.969Z,101324.72
2023-05-22T15:27:39.782Z,101321.63
2023-05-22T15:30:09.932Z,101330.63
2023-05-22T15:32:37.808Z,101323.31
2023-05-22T15:35:05.898Z,101330.78
2023-05-22T15:37:34.319Z,101339.34
2023-05-22T15:40:01.945Z,101333.25
2023-05-22T15:42:29.210Z,101325.97
2023-05-22T15:44:56.341Z,101330.75
2023-05-22T15:47:23.365Z,101332.41
2023-05-22T15:49:50.414Z,101334.13
2023-05-22T15:52:17.608Z,101321.28
2023-05-22T15:54:44.568Z,101331.59
2023-05-22T15:57:11.674Z,101321.22
2023-05-22T15:59:38.694Z,101335.84
2023-05-22T16:02:05.758Z,101315.88
2023-05-22T16:04:33.846Z,101310.28
2023-05-22T16:07:04.290Z,101302.75
2023-05-22T16:09:32.747Z,101303.56
2023-05-22T16:12:00.192Z,101304.09
2023-05-22T16:14:27.192Z,101285.38
2023-05-22T16:16:54.228Z,101302.22
2023-05-22T16:19:21.461Z,101296.72
2023-05-22T16:21:48.491Z,101288.25
2023-05-22T16:24:15.295Z,101288.38
2023-05-22T16:26:42.316Z,101293.13
2023-05-22T16:29:10.211Z,101297.97
2023-05-22T16:31:37.479Z,101301.34
2023-05-22T16:34:05.961Z,101296.66
2023-05-22T16:36:33.095Z,101295.94
2023-05-22T16:39:00.144Z,101292.53
2023-05-22T16:41:27.865Z,101288.72
2023-05-22T16:43:55.015Z,101272.63
2023-05-22T16:46:22.213Z,101259.28
2023-05-22T16:48:49.263Z,101269.47
2023-05-22T16:51:16.337Z,101276.31
2023-05-22T16:53:43.452Z,101277.84
2023-05-22T16:56:10.623Z,101273.72
2023-05-22T16:58:37.768Z,101279.59
2023-05-22T17:01:06.671Z,101278.06
2023-05-22T17:03:36.475Z,101301.03
2023-05-22T17:06:04.144Z,101300.91
2023-05-22T17:08:32.487Z,101266.31
2023-05-22T17:10:59.455Z,101278.88
2023-05-22T17:13:26.507Z,101274.72
2023-05-22T17:15:53.441Z,101262.59
2023-05-22T17:18:21.404Z,101257.31
2023-05-22T17:20:54.209Z,101264.88
2023-05-22T17:23:21.141Z,101260.19
2023-05-22T17:25:48.657Z,101268.53
2023-05-22T17:28:15.757Z,101263.53
2023-05-22T17:30:44.396Z,101273.31
2023-05-22T17:33:12.382Z,101279.03
2023-05-22T17:35:39.660Z,101285.59
2023-05-22T17:38:08.631Z,101288.31
2023-05-22T17:40:44.743Z,101288.47
2023-05-22T17:43:13.084Z,101292.31
2023-05-22T17:45:40.120Z,101298.19
2023-05-22T17:48:08.305Z,101301.38
2023-05-22T17:50:35.634Z,101297.56
2023-05-22T17:53:02.605Z,101293.41
2023-05-22T17:55:29.752Z,101284.53
2023-05-22T17:57:56.894Z,101285.94
2023-05-22T18:00:23.929Z,101288.81
2023-05-22T18:02:50.729Z,101292.66
2023-05-22T18:05:17.900Z,101296.03
2023-05-22T18:07:44.685Z,101300.19
2023-05-22T18:10:11.646Z,101310.63
2023-05-22T18:12:38.694Z,101311.53
2023-05-22T18:15:08.727Z,101327.66
2023-05-22T18:17:35.892Z,101340.81
2023-05-22T18:20:04.373Z,101349.00
2023-05-22T18:22:31.434Z,101343.19
2023-05-22T18:24:58.522Z,101344.94
2023-05-22T18:27:25.777Z,101338.41
2023-05-22T18:29:53.330Z,101327.75
2023-05-22T18:32:20.306Z,101333.91
2023-05-22T18:34:48.800Z,101331.03
2023-05-22T18:37:16.775Z,101336.81
2023-05-22T18:39:43.899Z,101331.81
2023-05-22T18:42:11.277Z,101347.00
2023-05-22T18:44:38.209Z,101353.00
2023-05-22T18:47:05.257Z,101364.97
2023-05-22T18:49:32.634Z,101369.28
2023-05-22T18:52:00.031Z,101382.13
2023-05-22T18:54:27.408Z,101391.03
2023-05-22T18:56:54.367Z,101397.63
2023-05-22T18:59:21.344Z,101410.53
2023-05-22T19:01:48.513Z,101423.13
2023-05-22T19:04:15.568Z,101440.41
2023-05-22T19:06:42.650Z,101454.00
2023-05-22T19:09:12.721Z,101459.56
2023-05-22T19:11:39.636Z,101469.84
2023-05-22T19:14:06.702Z,101466.56
2023-05-22T19:16:33.666Z,101491.66
2023-05-22T19:19:00.840Z,101478.28
2023-05-22T19:21:27.830Z,101474.53
2023-05-22T19:23:54.820Z,101478.94
2023-05-22T19:26:22.445Z,101492.28
2023-05-22T19:28:49.623Z,101501.31
2023-05-22T19:31:16.879Z,101501.91
2023-05-22T19:33:44.254Z,101495.81
2023-05-22T19:36:11.474Z,101499.88
2023-05-22T19:38:38.510Z,101500.66
2023-05-22T19:41:05.510Z,101495.00
2023-05-22T19:43:32.846Z,101483.22
2023-05-22T19:46:00.290Z,101477.56
2023-05-22T19:48:27.333Z,101469.63
2023-05-22T19:50:54.302Z,101471.84
2023-05-22T19:53:21.644Z,101467.91
2023-05-22T19:55:49.176Z,101454.63
2023-05-22T19:58:17.208Z,101450.25
2023-05-22T20:00:44.337Z,101441.97
2023-05-22T20:03:11.976Z,101451.72
2023-05-22T20:05:39.260Z,101458.88
2023-05-22T20:08:07.712Z,101454.69
2023-05-22T20:10:34.668Z,101463.22
2023-05-22T20:13:01.709Z,101469.09
2023-05-22T20:15:28.827Z,101458.44
2023-05-22T20:17:55.734Z,101458.69
2023-05-22T20:20:24.886Z,101454.34
2023-05-22T20:22:54.126Z,101452.66
2023-05-22T20:25:21.756Z,101446.97
2023-05-22T20:27:48.711Z,101453.97
2023-05-22T20:30:16.214Z,101460.88
2023-05-22T20:32:45.862Z,101451.63
2023-05-22T20:35:20.354Z,101453.88
2023-05-22T20:37:47.753Z,101445.06
2023-05-22T20:40:15.269Z,101453.03
2023-05-22T20:42:46.369Z,101443.56
2023-05-22T20:45:15.318Z,101433.50
2023-05-22T20:47:43.352Z,101439.25
2023-05-22T20:50:11.392Z,101437.56
2023-05-22T20:52:38.614Z,101440.97
2023-05-22T20:55:06.926Z,101432.28
2023-05-22T20:57:34.749Z,101420.69
2023-05-22T21:00:02.141Z,101408.50
2023-05-22T21:02:29.306Z,101412.13
2023-05-22T21:04:56.275Z,101413.75
2023-05-22T21:07:23.333Z,101377.63
2023-05-22T21:09:50.319Z,101404.16
2023-05-22T21:12:20.125Z,101408.59
2023-05-22T21:14:47.310Z,101409.09
2023-05-22T21:17:14.500Z,101413.41
2023-05-22T21:19:41.464Z,101403.00
2023-05-22T21:22:09.488Z,101406.00
2023-05-22T21:24:36.381Z,101414.91
2023-05-22T21:27:03.525Z,101402.28
2023-05-22T21:29:30.702Z,101404.59
2023-05-22T21:31:57.712Z,101408.72
2023-05-22T21:34:24.688Z,101404.47
2023-05-22T21:36:51.520Z,101397.69
2023-05-22T21:39:18.418Z,101381.00
2023-05-22T21:41:45.745Z,101397.78
2023-05-22T21:44:13.686Z,101387.19
2023-05-22T21:46:40.624Z,101383.22
2023-05-22T21:49:09.628Z,101373.97
2023-05-22T21:51:37.726Z,101375.09
2023-05-22T21:54:04.682Z,101379.75
2023-05-22T21:56:31.511Z,101358.38
2023-05-22T21:58:58.437Z,101359.81
2023-05-22T22:01:25.479Z,101368.81
2023-05-22T22:03:52.903Z,101368.69
2023-05-22T22:06:19.998Z,101358.75
2023-05-22T22:08:47.355Z,101359.00
2023-05-22T22:11:14.403Z,101362.00
2023-05-22T22:13:41.398Z,101351.25
2023-05-22T22:16:08.495Z,101358.53
2023-05-22T22:18:37.121Z,101356.63
2023-05-22T22:21:04.673Z,101366.34
2023-05-22T22:23:31.646Z,101363.94
2023-05-22T22:25:58.574Z,101359.22
2023-05-22T22:28:25.897Z,101365.44
2023-05-22T22:30:55.360Z,101361.59
2023-05-22T22:33:23.094Z,101365.31
2023-05-22T22:35:50.130Z,101367.63
2023-05-22T22:38:17.089Z,101365.56
2023-05-22T22:40:44.016Z,101359.19
2023-05-22T22:43:11.629Z,101356.81
2023-05-22T22:45:40.165Z,101370.03
2023-05-22T22:48:07.437Z,101377.97
2023-05-22T22:50:35.632Z,101372.34
2023-05-22T22:53:02.436Z,101369.81
2023-05-22T22:55:29.530Z,101372.06
2023-05-22T22:57:56.686Z,101373.63
2023-05-22T23:00:24.042Z,101379.03
2023-05-22T23:02:51.058Z,101380.69
2023-05-22T23:05:20.495Z,101381.75
2023-05-22T23:07:48.242Z,101370.63
2023-05-22T23:10:15.366Z,101377.31
2023-05-22T23:12:42.252Z,101375.44
2023-05-22T23:15:11.246Z,101374.38
2023-05-22T23:17:38.522Z,101373.44
2023-05-22T23:20:06.261Z,101372.13
2023-05-22T23:22:33.044Z,101361.00
2023-05-22T23:24:59.910Z,101358.28
2023-05-22T23:27:27.095Z,101361.59
2023-05-22T23:29:54.267Z,101358.28
2023-05-22T23:32:22.033Z,101347.75
2023-05-22T23:34:49.064Z,101345.94
2023-05-22T23:37:16.297Z,101341.25
2023-05-22T23:39:43.217Z,101343.97
2023-05-22T23:42:11.274Z,101343.03
2023-05-22T23:44:38.260Z,101347.38
2023-05-22T23:47:06.813Z,101347.16
2023-05-22T23:49:34.289Z,101336.00
2023-05-22T23:52:01.304Z,101331.09
2023-05-22T23:54:28.292Z,101328.50
2023-05-22T23:56:55.464Z,101328.84
2023-05-22T23:59:22.395Z,101333.31
